Time;durP1;ratioP1;P1;durP2;ratioP2;P2;SDS_P1;SDS_P2;PMS_P1;PMS_P2;Temp;Humidity;BMP_temperature;BMP_pressure;BME280_temperature;BME280_humidity;BME280_pressure;Samples;Min_cycle;Max_cycle;Signal;HPM_P1;HPM_P2
2022/11/10 00:00:24;;;;;;;;;;;;;;;14.96;100.00;99035.44;5019050;28;19935;-50
2022/11/10 00:02:50;;;;;;;;;;;;;;;15.01;100.00;99038.66;5017629;28;19913;-50
2022/11/10 00:05:15;;;;;;;;;;;;;;;15.27;100.00;99037.34;5019073;28;19959;-50
2022/11/10 00:07:40;;;;;;;;;;;;;;;15.29;100.00;99038.13;5019974;28;19921;-50
2022/11/10 00:10:06;;;;;;;;;;;;;;;15.11;100.00;99044.22;5018839;28;19917;-49
2022/11/10 00:12:31;;;;;;;;;;;;;;;15.59;100.00;99042.66;5018039;28;19956;-47
2022/11/10 00:17:40;;;;;;;;;;;;;;;14.76;100.00;99065.78;5019140;28;19924;-49
2022/11/10 00:20:06;;;;;;;;;;;;;;;15.35;100.00;99061.16;5018900;28;19921;-49
2022/11/10 00:22:34;;;;;;;;;;;;;;;15.13;100.00;99063.16;5018230;28;19963;-49
2022/11/10 00:24:59;;;;;;;;;;;;;;;15.19;100.00;99073.19;5017110;28;19928;-49
2022/11/10 00:27:24;;;;;;;;;;;;;;;15.01;100.00;99075.81;5018993;28;19925;-51
2022/11/10 00:29:50;;;;;;;;;;;;;;;14.88;100.00;99086.84;5018242;28;19928;-49
2022/11/10 00:32:15;;;;;;;;;;;;;;;15.04;100.00;99086.03;5018252;28;19936;-48
2022/11/10 00:34:40;;;;;;;;;;;;;;;14.81;100.00;99089.72;5019609;28;19931;-50
2022/11/10 00:37:05;;;;;;;;;;;;;;;14.98;100.00;99101.03;5017983;28;20911;-51
2022/11/10 00:39:31;;;;;;;;;;;;;;;14.91;100.00;99086.69;5018426;28;20341;-48
2022/11/10 00:41:56;;;;;;;;;;;;;;;14.85;100.00;99091.28;5018292;28;19943;-51
2022/11/10 00:44:21;;;;;;;;;;;;;;;14.84;100.00;99080.97;5018788;28;19917;-51
2022/11/10 00:46:46;;;;;;;;;;;;;;;15.08;100.00;99101.44;5018714;28;19928;-51
2022/11/10 00:49:12;;;;;;;;;;;;;;;14.75;100.00;99104.75;5019337;28;19921;-51
2022/11/10 00:51:37;;;;;;;;;;;;;;;14.74;100.00;99100.47;5016138;28;20389;-51
2022/11/10 00:54:02;;;;;;;;;;;;;;;14.77;100.00;99100.31;5014851;28;20393;-48
2022/11/10 00:56:28;;;;;;;;;;;;;;;14.99;100.00;99107.91;5017205;28;19921;-50
2022/11/10 00:58:53;;;;;;;;;;;;;;;14.86;100.00;99102.47;5017241;28;20353;-49
2022/11/10 01:01:19;;;;;;;;;;;;;;;14.70;100.00;99112.72;5018797;28;19932;-48
2022/11/10 01:03:44;;;;;;;;;;;;;;;14.34;100.00;99110.06;5019201;28;19923;-48
2022/11/10 01:06:13;;;;;;;;;;;;;;;14.70;100.00;99119.69;5018077;28;19969;-49
2022/11/10 01:08:39;;;;;;;;;;;;;;;14.42;100.00;99128.69;5017256;28;20021;-48
2022/11/10 01:11:05;;;;;;;;;;;;;;;14.80;100.00;99126.97;5017410;28;19968;-48
2022/11/10 01:13:30;;;;;;;;;;;;;;;14.94;100.00;99131.47;5019250;28;20410;-48
2022/11/10 01:15:55;;;;;;;;;;;;;;;15.01;100.00;99132.88;5018741;28;19931;-47
2022/11/10 01:18:21;;;;;;;;;;;;;;;14.86;100.00;99123.22;5018092;28;19972;-50
2022/11/10 01:20:50;;;;;;;;;;;;;;;15.09;100.00;99118.69;5016897;28;20338;-48
2022/11/10 01:23:15;;;;;;;;;;;;;;;14.56;100.00;99135.88;5015157;28;20000;-49
2022/11/10 01:25:40;;;;;;;;;;;;;;;15.01;100.00;99129.44;5019361;28;20442;-49
2022/11/10 01:28:06;;;;;;;;;;;;;;;14.93;100.00;99124.59;5018581;28;19923;-47
2022/11/10 01:30:31;;;;;;;;;;;;;;;14.62;100.00;99131.25;5021136;28;19928;-48
2022/11/10 01:32:56;;;;;;;;;;;;;;;14.77;100.00;99134.03;5023168;28;19917;-49
2022/11/10 01:35:21;;;;;;;;;;;;;;;14.72;100.00;99139.44;5022288;28;20056;-48
2022/11/10 01:37:46;;;;;;;;;;;;;;;14.90;100.00;99136.88;5021781;28;20035;-48
2022/11/10 01:40:12;;;;;;;;;;;;;;;14.52;100.00;99155.84;5021656;28;19921;-52
2022/11/10 01:42:47;;;;;;;;;;;;;;;14.93;100.00;99150.53;5022631;28;19927;-49
2022/11/10 01:45:22;;;;;;;;;;;;;;;14.90;100.00;99149.84;5022637;28;20041;-52
2022/11/10 01:47:57;;;;;;;;;;;;;;;14.77;100.00;99144.41;5022204;28;20547;-49
2022/11/10 01:50:23;;;;;;;;;;;;;;;14.97;100.00;99146.88;5021679;28;19921;-48
2022/11/10 01:52:49;;;;;;;;;;;;;;;14.97;100.00;99141.69;5021782;28;19917;-50
2022/11/10 01:55:14;;;;;;;;;;;;;;;15.37;100.00;99144.97;5018812;28;19978;-51
2022/11/10 01:57:39;;;;;;;;;;;;;;;15.15;100.00;99150.34;5023374;28;20738;-50
2022/11/10 02:00:05;;;;;;;;;;;;;;;14.87;100.00;99150.84;5018852;28;19925;-50
2022/11/10 02:02:31;;;;;;;;;;;;;;;14.23;100.00;99154.56;5021566;28;19968;-52
2022/11/10 02:04:57;;;;;;;;;;;;;;;15.02;100.00;99160.47;5020173;28;19948;-49
2022/11/10 02:07:22;;;;;;;;;;;;;;;15.29;100.00;99156.63;5021522;28;20404;-49
2022/11/10 02:09:47;;;;;;;;;;;;;;;15.13;100.00;99152.19;5020750;28;20299;-48
2022/11/10 02:12:13;;;;;;;;;;;;;;;15.14;100.00;99164.22;5019952;28;19978;-49
2022/11/10 02:14:38;;;;;;;;;;;;;;;14.99;100.00;99175.34;5020885;28;19920;-48
2022/11/10 02:17:03;;;;;;;;;;;;;;;14.97;100.00;99177.16;5019799;28;19988;-50
2022/11/10 02:19:28;;;;;;;;;;;;;;;15.21;100.00;99180.34;5019784;28;20010;-48
2022/11/10 02:21:54;;;;;;;;;;;;;;;15.27;100.00;99178.28;5022081;28;20325;-49
2022/11/10 02:24:19;;;;;;;;;;;;;;;15.09;100.00;99175.75;5021382;28;19931;-51
2022/11/10 02:26:46;;;;;;;;;;;;;;;15.35;100.00;99167.56;5020497;28;19921;-51
2022/11/10 02:29:11;;;;;;;;;;;;;;;15.27;100.00;99172.25;5019851;28;19923;-49
2022/11/10 02:31:37;;;;;;;;;;;;;;;15.16;100.00;99171.94;5022013;28;19917;-50
2022/11/10 02:34:02;;;;;;;;;;;;;;;14.98;100.00;99179.66;5020963;28;20012;-48
2022/11/10 02:36:27;;;;;;;;;;;;;;;14.85;100.00;99178.59;5021642;28;19925;-49
2022/11/10 02:38:52;;;;;;;;;;;;;;;14.72;100.00;99187.84;5021170;28;19925;-49
2022/11/10 02:41:17;;;;;;;;;;;;;;;14.73;100.00;99194.69;5020456;28;19928;-49
2022/11/10 02:43:43;;;;;;;;;;;;;;;14.97;100.00;99198.75;5021778;28;20461;-51
2022/11/10 02:46:08;;;;;;;;;;;;;;;15.26;100.00;99188.75;5020675;28;20401;-50
2022/11/10 02:48:33;;;;;;;;;;;;;;;14.95;100.00;99195.38;5019565;28;20550;-49
2022/11/10 02:50:58;;;;;;;;;;;;;;;14.80;100.00;99196.09;5021075;28;20833;-51
2022/11/10 02:53:23;;;;;;;;;;;;;;;14.69;100.00;99193.16;5020517;28;20354;-48
2022/11/10 02:55:49;;;;;;;;;;;;;;;14.56;100.00;99200.66;5019710;28;19925;-50
2022/11/10 02:58:14;;;;;;;;;;;;;;;14.69;100.00;99194.00;5019040;28;19924;-49
2022/11/10 03:00:39;;;;;;;;;;;;;;;15.17;100.00;99189.19;5020913;28;19917;-49
2022/11/10 03:03:04;;;;;;;;;;;;;;;15.11;100.00;99194.69;5019357;28;19925;-51
2022/11/10 03:05:30;;;;;;;;;;;;;;;14.90;100.00;99197.38;5021337;28;19921;-49
2022/11/10 03:07:56;;;;;;;;;;;;;;;14.87;100.00;99209.63;5020098;28;19925;-48
2022/11/10 03:10:21;;;;;;;;;;;;;;;15.08;100.00;99202.63;5020676;28;19923;-47
2022/11/10 03:12:47;;;;;;;;;;;;;;;14.80;100.00;99222.03;5019257;28;19921;-49
2022/11/10 03:15:13;;;;;;;;;;;;;;;14.87;100.00;99223.44;5019969;28;19921;-49
2022/11/10 03:17:38;;;;;;;;;;;;;;;14.84;100.00;99220.97;5020466;28;19922;-48
2022/11/10 03:20:04;;;;;;;;;;;;;;;15.22;100.00;99219.19;5018297;28;19928;-49
2022/11/10 03:22:29;;;;;;;;;;;;;;;14.65;100.00;99210.59;5020361;28;19966;-50
2022/11/10 03:24:54;;;;;;;;;;;;;;;14.76;100.00;99230.88;5020779;28;20090;-48
2022/11/10 03:27:19;;;;;;;;;;;;;;;14.59;100.00;99235.03;5019420;28;19932;-49
2022/11/10 03:29:44;;;;;;;;;;;;;;;14.77;100.00;99228.19;5018368;28;19921;-49
2022/11/10 03:32:10;;;;;;;;;;;;;;;14.90;100.00;99225.88;5019747;28;20044;-49
2022/11/10 03:34:35;;;;;;;;;;;;;;;14.52;100.00;99231.00;5019938;28;20027;-48
2022/11/10 03:37:00;;;;;;;;;;;;;;;14.54;100.00;99221.44;5001412;28;19925;-49
2022/11/10 03:39:25;;;;;;;;;;;;;;;14.50;100.00;99235.41;5019666;28;19928;-49
2022/11/10 03:41:51;;;;;;;;;;;;;;;14.60;100.00;99234.16;5019499;28;20006;-48
2022/11/10 03:44:16;;;;;;;;;;;;;;;14.26;100.00;99231.34;5019274;28;20035;-49
2022/11/10 03:46:41;;;;;;;;;;;;;;;14.65;100.00;99233.94;5019389;28;20011;-50
2022/11/10 03:49:06;;;;;;;;;;;;;;;14.67;100.00;99244.25;5017210;28;19948;-50
2022/11/10 03:51:31;;;;;;;;;;;;;;;14.78;100.00;99252.34;5016213;28;19929;-47
2022/11/10 03:53:57;;;;;;;;;;;;;;;14.45;100.00;99258.09;5016459;28;19933;-48
2022/11/10 03:56:22;;;;;;;;;;;;;;;14.92;100.00;99259.53;5018910;28;19925;-48
2022/11/10 03:58:47;;;;;;;;;;;;;;;14.69;100.00;99250.19;5019234;28;19963;-48
2022/11/10 04:01:12;;;;;;;;;;;;;;;14.19;100.00;99262.69;5018466;28;19921;-48
2022/11/10 04:03:38;;;;;;;;;;;;;;;14.61;100.00;99266.91;5018219;28;19951;-49
2022/11/10 04:08:59;;;;;;;;;;;;;;;14.56;100.00;99265.47;5018999;28;19974;-49
2022/11/10 04:16:52;;;;;;;;;;;;;;;14.79;100.00;99256.66;5017719;28;20003;-48
2022/11/10 04:19:17;;;;;;;;;;;;;;;14.76;100.00;99262.81;5016575;28;20016;-51
2022/11/10 04:21:43;;;;;;;;;;;;;;;14.49;100.00;99276.97;5017064;28;20009;-50
2022/11/10 04:24:08;;;;;;;;;;;;;;;15.09;100.00;99282.09;5017029;28;20007;-51
2022/11/10 04:26:36;;;;;;;;;;;;;;;15.24;100.00;99284.81;5017823;28;20012;-51
2022/11/10 04:29:02;;;;;;;;;;;;;;;14.64;100.00;99300.50;5016303;28;19913;-51
2022/11/10 04:31:28;;;;;;;;;;;;;;;14.73;100.00;99301.00;5017477;28;20713;-48
2022/11/10 04:33:53;;;;;;;;;;;;;;;14.62;100.00;99302.31;5017738;28;19940;-50
2022/11/10 04:36:20;;;;;;;;;;;;;;;14.61;100.00;99310.97;5017498;28;20186;-50
2022/11/10 04:38:46;;;;;;;;;;;;;;;14.72;100.00;99314.88;5017377;28;19925;-49
2022/11/10 04:41:11;;;;;;;;;;;;;;;14.63;100.00;99306.56;5016522;28;19924;-48
2022/11/10 04:43:36;;;;;;;;;;;;;;;14.58;100.00;99308.53;5017147;28;20003;-48
2022/11/10 04:46:02;;;;;;;;;;;;;;;14.51;100.00;99317.47;5018749;28;19917;-48
2022/11/10 04:48:27;;;;;;;;;;;;;;;14.61;100.00;99313.56;5017542;28;19960;-47
2022/11/10 04:50:52;;;;;;;;;;;;;;;14.60;100.00;99317.09;5017864;28;19975;-50
2022/11/10 04:53:18;;;;;;;;;;;;;;;14.43;100.00;99335.06;5017254;28;20011;-51
2022/11/10 04:55:43;;;;;;;;;;;;;;;14.79;100.00;99345.63;5015347;28;19928;-48
2022/11/10 04:58:09;;;;;;;;;;;;;;;14.76;100.00;99344.94;5015051;28;19921;-48
2022/11/10 05:00:34;;;;;;;;;;;;;;;14.29;100.00;99358.13;5016974;28;19924;-49
2022/11/10 05:03:00;;;;;;;;;;;;;;;14.79;100.00;99343.03;5014818;28;20267;-48
2022/11/10 05:05:25;;;;;;;;;;;;;;;14.16;100.00;99353.47;5014887;28;19921;-48
2022/11/10 05:07:50;;;;;;;;;;;;;;;14.38;100.00;99355.16;5017019;28;20303;-50
2022/11/10 05:10:16;;;;;;;;;;;;;;;14.03;100.00;99367.81;5017339;28;20475;-48
2022/11/10 05:12:41;;;;;;;;;;;;;;;14.42;100.00;99359.31;5018335;28;20268;-50
2022/11/10 05:15:06;;;;;;;;;;;;;;;14.32;100.00;99369.22;4952187;28;1818918;-49
2022/11/10 05:17:31;;;;;;;;;;;;;;;13.83;100.00;99378.97;5012768;28;19925;-47
2022/11/10 05:19:57;;;;;;;;;;;;;;;14.20;100.00;99383.50;5016629;28;20548;-48
2022/11/10 05:22:22;;;;;;;;;;;;;;;14.62;100.00;99372.31;5018867;28;20309;-49
2022/11/10 05:24:47;;;;;;;;;;;;;;;14.23;100.00;99377.34;5017513;28;20511;-50
2022/11/10 05:27:12;;;;;;;;;;;;;;;14.11;100.00;99381.28;5017237;28;19968;-50
2022/11/10 05:29:37;;;;;;;;;;;;;;;14.15;100.00;99390.63;5015376;28;19960;-49
2022/11/10 05:32:03;;;;;;;;;;;;;;;14.15;100.00;99400.16;5016333;28;19920;-49
2022/11/10 05:34:28;;;;;;;;;;;;;;;14.28;100.00;99406.53;5018311;28;19924;-48
2022/11/10 05:36:53;;;;;;;;;;;;;;;14.87;100.00;99397.19;5017831;28;19932;-50
2022/11/10 05:39:18;;;;;;;;;;;;;;;13.92;100.00;99414.00;5018554;28;20423;-49
2022/11/10 05:41:44;;;;;;;;;;;;;;;14.33;100.00;99414.09;4999419;28;20432;-50
2022/11/10 05:44:09;;;;;;;;;;;;;;;14.07;100.00;99421.19;5017182;28;19931;-50
2022/11/10 05:46:34;;;;;;;;;;;;;;;13.86;100.00;99430.59;5013899;28;19925;-48
2022/11/10 05:49:00;;;;;;;;;;;;;;;13.95;100.00;99432.84;5018211;28;19917;-49
2022/11/10 05:51:25;;;;;;;;;;;;;;;13.90;100.00;99446.88;5016888;28;19994;-49
2022/11/10 05:53:50;;;;;;;;;;;;;;;13.91;100.00;99443.38;5013923;28;19927;-48
2022/11/10 05:56:15;;;;;;;;;;;;;;;13.74;100.00;99455.22;5015352;28;19924;-49
2022/11/10 05:58:41;;;;;;;;;;;;;;;13.76;100.00;99461.19;5030954;28;19925;-49
2022/11/10 06:01:06;;;;;;;;;;;;;;;14.16;100.00;99459.66;5016474;28;19925;-50
2022/11/10 06:03:32;;;;;;;;;;;;;;;14.16;100.00;99459.66;5017102;28;19920;-48
2022/11/10 06:05:57;;;;;;;;;;;;;;;14.18;100.00;99464.75;5017692;28;19913;-49
2022/11/10 06:08:22;;;;;;;;;;;;;;;14.26;100.00;99469.66;5017085;28;19916;-50
2022/11/10 06:10:47;;;;;;;;;;;;;;;14.32;100.00;99472.00;5016825;28;19921;-48
2022/11/10 06:13:13;;;;;;;;;;;;;;;14.40;100.00;99475.13;5017509;28;19925;-50
2022/11/10 06:15:38;;;;;;;;;;;;;;;14.14;100.00;99471.84;5018884;28;20034;-48
2022/11/10 06:18:04;;;;;;;;;;;;;;;14.11;100.00;99471.94;5020548;28;20007;-49
2022/11/10 06:20:29;;;;;;;;;;;;;;;14.08;100.00;99476.41;5018539;28;19921;-50
2022/11/10 06:23:00;;;;;;;;;;;;;;;14.31;100.00;99478.94;5021031;28;19913;-48
2022/11/10 06:25:26;;;;;;;;;;;;;;;14.35;100.00;99485.69;5020335;28;20240;-48
2022/11/10 06:27:51;;;;;;;;;;;;;;;14.30;100.00;99491.94;5019078;28;20405;-48
2022/11/10 06:30:16;;;;;;;;;;;;;;;14.41;100.00;99501.00;5018471;28;19941;-49
2022/11/10 06:32:42;;;;;;;;;;;;;;;14.21;100.00;99499.19;5021108;28;20290;-48
2022/11/10 06:35:08;;;;;;;;;;;;;;;14.42;100.00;99496.66;5019562;28;20016;-48
2022/11/10 06:37:33;;;;;;;;;;;;;;;14.70;100.00;99492.97;5020150;28;20812;-48
2022/11/10 06:39:58;;;;;;;;;;;;;;;14.43;100.00;99493.13;5019713;28;19917;-49
2022/11/10 06:42:23;;;;;;;;;;;;;;;14.51;100.00;99504.06;5020277;28;19917;-49
2022/11/10 06:44:49;;;;;;;;;;;;;;;14.60;100.00;99500.28;5019412;28;19917;-48
2022/11/10 06:47:14;;;;;;;;;;;;;;;14.86;100.00;99496.59;5020321;28;19921;-48
2022/11/10 06:49:40;;;;;;;;;;;;;;;14.44;100.00;99495.69;5019716;28;19932;-50
2022/11/10 06:52:05;;;;;;;;;;;;;;;14.46;100.00;99503.41;5020866;28;19943;-47
2022/11/10 06:54:30;;;;;;;;;;;;;;;14.39;100.00;99501.94;5016290;28;19978;-48
2022/11/10 06:56:55;;;;;;;;;;;;;;;14.60;100.00;99498.53;5015932;28;19932;-49
2022/11/10 06:59:21;;;;;;;;;;;;;;;14.52;100.00;99508.31;5020343;28;19928;-49
2022/11/10 07:01:47;;;;;;;;;;;;;;;15.19;100.00;99504.72;5020048;28;19928;-48
2022/11/10 07:04:14;;;;;;;;;;;;;;;15.43;100.00;99495.03;5019679;28;20430;-48
2022/11/10 07:06:40;;;;;;;;;;;;;;;15.05;100.00;99507.03;5020823;28;19921;-49
2022/11/10 07:09:05;;;;;;;;;;;;;;;15.44;100.00;99504.50;5020296;28;19928;-48
2022/11/10 07:11:30;;;;;;;;;;;;;;;15.41;100.00;99504.63;5020085;28;19932;-48
2022/11/10 07:13:55;;;;;;;;;;;;;;;15.33;100.00;99500.69;5020929;28;19923;-48
2022/11/10 07:16:21;;;;;;;;;;;;;;;15.32;100.00;99505.03;5017416;28;19929;-49
2022/11/10 07:18:46;;;;;;;;;;;;;;;15.30;100.00;99509.44;5005900;28;19928;-50
2022/11/10 07:21:12;;;;;;;;;;;;;;;15.67;100.00;99516.47;5016544;28;19917;-48
2022/11/10 07:23:37;;;;;;;;;;;;;;;15.18;100.00;99518.59;5019949;28;20592;-51
2022/11/10 07:26:02;;;;;;;;;;;;;;;15.60;100.00;99514.19;5019033;28;20405;-49
2022/11/10 07:28:27;;;;;;;;;;;;;;;15.40;100.00;99517.69;5016532;28;19925;-48
2022/11/10 07:30:53;;;;;;;;;;;;;;;15.48;100.00;99508.63;5018838;28;19921;-48
2022/11/10 07:33:18;;;;;;;;;;;;;;;15.77;100.00;99506.53;5018480;28;19921;-48
2022/11/10 07:35:48;;;;;;;;;;;;;;;15.04;100.00;99526.13;5017565;28;20389;-48
2022/11/10 07:38:14;;;;;;;;;;;;;;;15.30;100.00;99530.19;5018337;28;19921;-50
2022/11/10 07:40:39;;;;;;;;;;;;;;;15.57;100.00;99532.50;5019920;28;20783;-48
2022/11/10 07:43:04;;;;;;;;;;;;;;;14.68;100.00;99544.03;5017621;28;20557;-48
2022/11/10 07:45:30;;;;;;;;;;;;;;;15.20;100.00;99552.25;5018566;28;19921;-51
2022/11/10 07:47:59;;;;;;;;;;;;;;;15.23;100.00;99550.38;5019798;28;19932;-50
2022/11/10 07:50:24;;;;;;;;;;;;;;;15.18;100.00;99557.50;5018577;28;19921;-49
2022/11/10 07:52:49;;;;;;;;;;;;;;;15.34;100.00;99560.31;5020067;28;19920;-49
2022/11/10 07:55:15;;;;;;;;;;;;;;;15.24;100.00;99572.00;5016614;28;19921;-51
2022/11/10 07:57:40;;;;;;;;;;;;;;;15.45;100.00;99576.25;5018763;28;19925;-50
2022/11/10 08:00:06;;;;;;;;;;;;;;;15.71;100.00;99563.94;5015598;28;19925;-48
2022/11/10 08:02:31;;;;;;;;;;;;;;;15.62;100.00;99566.91;5016124;28;19921;-49
2022/11/10 08:04:57;;;;;;;;;;;;;;;15.44;100.00;99577.19;5008735;28;19975;-49
2022/11/10 08:07:22;;;;;;;;;;;;;;;15.10;100.00;99595.06;5012293;28;19921;-48
2022/11/10 08:09:47;;;;;;;;;;;;;;;15.36;100.00;99596.59;5014133;28;19927;-48
2022/11/10 08:12:12;;;;;;;;;;;;;;;15.40;100.00;99598.97;5017838;28;19960;-48
2022/11/10 08:14:38;;;;;;;;;;;;;;;15.54;100.00;99605.34;5015581;28;19952;-49
2022/11/10 08:17:03;;;;;;;;;;;;;;;15.64;100.00;99596.22;5009336;28;20541;-48
2022/11/10 08:19:28;;;;;;;;;;;;;;;15.47;100.00;99613.38;5014882;28;19921;-49
2022/11/10 08:21:53;;;;;;;;;;;;;;;15.11;100.00;99625.28;5015535;28;19928;-48
2022/11/10 08:24:18;;;;;;;;;;;;;;;15.74;100.00;99625.28;5015033;28;19922;-50
2022/11/10 08:26:44;;;;;;;;;;;;;;;15.41;100.00;99629.19;5016936;28;19936;-48
2022/11/10 08:29:09;;;;;;;;;;;;;;;14.99;100.00;99640.44;5017744;28;20012;-48
2022/11/10 08:31:34;;;;;;;;;;;;;;;15.15;100.00;99648.44;5014455;28;20071;-49
2022/11/10 08:34:00;;;;;;;;;;;;;;;15.58;100.00;99643.25;5016796;28;19924;-50
2022/11/10 08:36:25;;;;;;;;;;;;;;;15.69;100.00;99649.66;5016721;28;20023;-51
2022/11/10 08:38:50;;;;;;;;;;;;;;;15.94;100.00;99668.56;5015589;28;19924;-49
2022/11/10 08:41:15;;;;;;;;;;;;;;;15.92;100.00;99657.41;5019515;28;19921;-51
2022/11/10 08:43:41;;;;;;;;;;;;;;;15.42;100.00;99656.03;5018772;28;19917;-50
2022/11/10 08:46:06;;;;;;;;;;;;;;;15.57;100.00;99665.75;5015699;28;19921;-50
2022/11/10 08:48:31;;;;;;;;;;;;;;;15.54;100.00;99665.88;5017003;28;19928;-51
2022/11/10 08:50:57;;;;;;;;;;;;;;;15.36;100.00;99659.69;5015834;28;20366;-50
2022/11/10 08:53:23;;;;;;;;;;;;;;;15.66;100.00;99659.34;5012502;28;20429;-49
2022/11/10 08:55:48;;;;;;;;;;;;;;;15.01;100.00;99664.56;5014090;28;19916;-50
2022/11/10 08:58:18;;;;;;;;;;;;;;;15.84;100.00;99658.56;5013790;28;19924;-50
2022/11/10 09:00:44;;;;;;;;;;;;;;;15.50;100.00;99673.88;5010489;28;19925;-49
2022/11/10 09:03:12;;;;;;;;;;;;;;;15.64;100.00;99677.56;5011394;28;19921;-49
2022/11/10 09:05:37;;;;;;;;;;;;;;;15.79;100.00;99670.91;5017120;28;20044;-49
2022/11/10 09:08:03;;;;;;;;;;;;;;;16.07;100.00;99680.94;5018203;28;19924;-49
2022/11/10 09:10:28;;;;;;;;;;;;;;;15.98;100.00;99685.72;5017752;28;20012;-51
2022/11/10 09:12:54;;;;;;;;;;;;;;;15.82;100.00;99707.13;5016295;28;20508;-51
2022/11/10 09:15:19;;;;;;;;;;;;;;;15.87;100.00;99694.81;5016702;28;20345;-48
2022/11/10 09:17:44;;;;;;;;;;;;;;;16.05;100.00;99693.16;5018102;28;20349;-44
2022/11/10 09:20:11;;;;;;;;;;;;;;;15.71;100.00;99706.75;5018323;28;20528;-44
2022/11/10 09:22:36;;;;;;;;;;;;;;;15.68;100.00;99715.47;5015642;28;19921;-44
2022/11/10 09:25:02;;;;;;;;;;;;;;;15.53;100.00;99716.13;5017867;28;19971;-44
2022/11/10 09:27:27;;;;;;;;;;;;;;;16.08;100.00;99718.19;5017489;28;20513;-44
2022/11/10 09:29:52;;;;;;;;;;;;;;;15.11;100.00;99729.06;5016442;28;19975;-44
2022/11/10 09:32:17;;;;;;;;;;;;;;;15.90;100.00;99725.03;5014711;28;19929;-44
2022/11/10 09:34:43;;;;;;;;;;;;;;;15.82;100.00;99733.13;5017324;28;19932;-44
2022/11/10 09:37:08;;;;;;;;;;;;;;;15.75;100.00;99721.28;5018402;28;19921;-44
2022/11/10 09:39:33;;;;;;;;;;;;;;;16.82;100.00;99702.75;5016465;28;19968;-44
2022/11/10 09:41:58;;;;;;;;;;;;;;;16.79;100.00;99699.44;5016204;28;19925;-44
2022/11/10 09:44:24;;;;;;;;;;;;;;;16.40;100.00;99713.31;5018384;28;19917;-44
2022/11/10 09:46:51;;;;;;;;;;;;;;;17.05;100.00;99706.88;5014846;28;19921;-44
2022/11/10 09:49:22;;;;;;;;;;;;;;;16.90;100.00;99708.47;5014355;28;19917;-44
2022/11/10 09:51:47;;;;;;;;;;;;;;;16.99;100.00;99707.19;5021882;28;19931;-44
2022/11/10 09:54:36;;;;;;;;;;;;;;;17.11;100.00;99704.00;5021288;28;19917;-45
2022/11/10 09:57:01;;;;;;;;;;;;;;;17.00;100.00;99714.06;5017283;28;20727;-44
2022/11/10 09:59:27;;;;;;;;;;;;;;;17.09;100.00;99712.78;5021071;28;19928;-44
2022/11/10 10:02:11;;;;;;;;;;;;;;;17.20;100.00;99718.34;5020015;28;19917;-44
2022/11/10 10:04:36;;;;;;;;;;;;;;;17.48;100.00;99730.84;5020997;28;19967;-45
2022/11/10 10:07:19;;;;;;;;;;;;;;;18.59;100.00;99709.59;5019442;28;19913;-44
2022/11/10 10:10:04;;;;;;;;;;;;;;;17.38;100.00;99718.34;5021641;28;19917;-45
2022/11/10 10:12:48;;;;;;;;;;;;;;;17.08;100.00;99737.13;5019704;28;19913;-45
2022/11/10 10:15:17;;;;;;;;;;;;;;;17.53;100.00;99734.06;5020006;28;20474;-44
2022/11/10 10:17:46;;;;;;;;;;;;;;;17.34;100.00;99730.69;5021724;28;20843;-44
2022/11/10 10:20:30;;;;;;;;;;;;;;;16.77;100.00;99750.69;5017807;28;19952;-44
2022/11/10 10:23:18;;;;;;;;;;;;;;;16.70;100.00;99753.56;5021910;28;20006;-44
2022/11/10 10:25:43;;;;;;;;;;;;;;;17.10;100.00;99735.28;5018110;28;19917;-44
2022/11/10 10:28:19;;;;;;;;;;;;;;;17.40;100.00;99740.78;5019119;28;20279;-44
2022/11/10 10:30:45;;;;;;;;;;;;;;;17.05;100.00;99753.72;5020850;28;19917;-45
2022/11/10 10:33:14;;;;;;;;;;;;;;;18.14;100.00;99731.97;5020904;28;19925;-44
2022/11/10 10:35:40;;;;;;;;;;;;;;;18.07;100.00;99722.78;5021188;28;19918;-44
2022/11/10 10:38:08;;;;;;;;;;;;;;;18.22;100.00;99735.00;5018507;28;19925;-44
2022/11/10 10:40:34;;;;;;;;;;;;;;;17.96;100.00;99731.13;5021186;28;19921;-44
2022/11/10 10:42:59;;;;;;;;;;;;;;;17.46;100.00;99743.09;5020889;28;19917;-44
2022/11/10 10:45:25;;;;;;;;;;;;;;;17.48;100.00;99745.66;5021843;28;20469;-45
2022/11/10 10:47:51;;;;;;;;;;;;;;;17.47;100.00;99750.00;5019707;28;19921;-44
2022/11/10 10:50:24;;;;;;;;;;;;;;;17.39;100.00;99749.53;5008459;28;20370;-44
2022/11/10 10:53:08;;;;;;;;;;;;;;;17.46;100.00;99747.47;5021398;28;20318;-44
2022/11/10 10:55:34;;;;;;;;;;;;;;;16.76;100.00;99764.59;5020306;28;19917;-44
2022/11/10 10:58:04;;;;;;;;;;;;;;;17.23;100.00;99756.38;5019501;28;19924;-44
2022/11/10 11:00:29;;;;;;;;;;;;;;;17.66;100.00;99743.91;5020392;28;19924;-46
2022/11/10 11:03:20;;;;;;;;;;;;;;;17.42;100.00;99751.97;5016949;28;19917;-44
2022/11/10 11:05:58;;;;;;;;;;;;;;;17.28;100.00;99746.59;5020501;28;20306;-45
2022/11/10 11:08:24;;;;;;;;;;;;;;;17.22;100.00;99749.47;5016094;28;19944;-44
2022/11/10 11:10:49;;;;;;;;;;;;;;;17.84;100.00;99734.38;5020153;28;20414;-44
2022/11/10 11:13:24;;;;;;;;;;;;;;;17.74;100.00;99742.63;5020937;28;19917;-44
2022/11/10 11:16:00;;;;;;;;;;;;;;;17.86;100.00;99742.91;5018686;28;19975;-44
2022/11/10 11:18:26;;;;;;;;;;;;;;;17.77;100.00;99746.81;5013655;28;20040;-44
2022/11/10 11:21:07;;;;;;;;;;;;;;;18.01;100.00;99752.59;5001706;28;19941;-44
2022/11/10 11:23:32;;;;;;;;;;;;;;;17.43;100.00;99748.47;5020378;28;19913;-44
2022/11/10 11:25:59;;;;;;;;;;;;;;;17.79;100.00;99758.00;5018040;28;19921;-44
2022/11/10 11:28:36;;;;;;;;;;;;;;;18.30;100.00;99756.31;5018374;28;19982;-45
2022/11/10 11:31:04;;;;;;;;;;;;;;;17.79;100.00;99765.84;5018439;28;20487;-44
2022/11/10 11:33:36;;;;;;;;;;;;;;;17.87;100.00;99773.28;5018894;28;20059;-44
2022/11/10 11:36:04;;;;;;;;;;;;;;;17.52;100.00;99758.44;5019995;28;19917;-45
2022/11/10 11:38:36;;;;;;;;;;;;;;;17.75;100.00;99770.34;5017802;28;20498;-44
2022/11/10 11:41:10;;;;;;;;;;;;;;;17.67;100.00;99771.63;5033884;28;20374;-44
2022/11/10 11:43:48;;;;;;;;;;;;;;;17.71;100.00;99767.97;5017396;28;19925;-45
2022/11/10 11:46:13;;;;;;;;;;;;;;;17.59;100.00;99766.81;5019451;28;19924;-45
2022/11/10 11:48:50;;;;;;;;;;;;;;;17.92;100.00;99774.72;5019857;28;20589;-43
2022/11/10 11:51:21;;;;;;;;;;;;;;;17.41;100.00;99776.34;5018992;28;20377;-43
2022/11/10 11:53:51;;;;;;;;;;;;;;;17.49;100.00;99774.22;5019875;28;19945;-43
2022/11/10 11:56:19;;;;;;;;;;;;;;;18.10;100.00;99775.56;5018254;28;20008;-42
2022/11/10 11:58:49;;;;;;;;;;;;;;;18.06;100.00;99775.81;5015630;28;19921;-42
2022/11/10 12:01:21;;;;;;;;;;;;;;;17.89;100.00;99781.88;5016906;28;20393;-43
2022/11/10 12:03:59;;;;;;;;;;;;;;;16.96;100.00;99805.34;5018366;28;19924;-43
2022/11/10 12:06:40;;;;;;;;;;;;;;;18.44;100.00;99783.44;5006520;28;19967;-43
2022/11/10 12:09:28;;;;;;;;;;;;;;;18.30;100.00;99785.00;5015591;28;19929;-42
2022/11/10 12:11:57;;;;;;;;;;;;;;;17.62;100.00;99795.28;5012532;28;19925;-43
2022/11/10 12:14:37;;;;;;;;;;;;;;;17.31;100.00;99807.19;5014941;28;19943;-45
2022/11/10 12:17:09;;;;;;;;;;;;;;;17.63;100.00;99790.91;5015567;28;20342;-43
2022/11/10 12:19:47;;;;;;;;;;;;;;;17.59;100.00;99786.81;5023603;28;19932;-43
2022/11/10 12:22:22;;;;;;;;;;;;;;;17.76;100.00;99790.25;5016485;28;20019;-43
2022/11/10 12:24:53;;;;;;;;;;;;;;;17.43;100.00;99795.34;5017199;28;20390;-42
2022/11/10 12:27:26;;;;;;;;;;;;;;;17.37;100.00;99785.22;5019018;28;20990;-42
2022/11/10 12:30:00;;;;;;;;;;;;;;;17.87;100.00;99784.53;5016334;28;19924;-42
2022/11/10 12:32:46;;;;;;;;;;;;;;;18.08;100.00;99773.97;5018985;28;19949;-43
2022/11/10 12:35:12;;;;;;;;;;;;;;;18.12;100.00;99788.53;5017537;28;19917;-43
2022/11/10 12:37:39;;;;;;;;;;;;;;;18.02;100.00;99788.16;5018135;28;19932;-43
2022/11/10 12:40:04;;;;;;;;;;;;;;;17.86;100.00;99803.72;5014603;28;19917;-43
2022/11/10 12:42:32;;;;;;;;;;;;;;;18.42;100.00;99793.09;5033417;28;20059;-42
2022/11/10 12:44:58;;;;;;;;;;;;;;;18.06;100.00;99800.09;5016487;28;19952;-43